createdAt,value
2022-08-28T00:00:59.180Z,14.48
2022-08-28T00:03:30.440Z,15.70
2022-08-28T00:05:59.939Z,15.38
2022-08-28T00:08:30.444Z,15.02
2022-08-28T00:10:59.400Z,15.48
2022-08-28T00:13:28.266Z,15.85
2022-08-28T00:16:00.809Z,15.68
2022-08-28T00:18:31.252Z,16.45
2022-08-28T00:21:00.455Z,15.80
2022-08-28T00:23:32.911Z,16.20
2022-08-28T00:26:11.673Z,15.38
2022-08-28T00:28:38.996Z,16.70
2022-08-28T00:31:07.313Z,16.67
2022-08-28T00:33:36.945Z,15.38
2022-08-28T00:36:05.947Z,16.17
2022-08-28T00:38:34.309Z,16.85
2022-08-28T00:41:05.038Z,15.82
2022-08-28T00:43:36.925Z,15.50
2022-08-28T00:46:07.836Z,15.77
2022-08-28T00:48:37.871Z,16.52
2022-08-28T00:51:24.687Z,15.93
2022-08-28T00:53:58.447Z,16.23
2022-08-28T00:56:27.721Z,16.20
2022-08-28T00:58:57.912Z,16.00
2022-08-28T01:01:26.354Z,15.40
2022-08-28T01:03:55.984Z,15.90
2022-08-28T01:06:24.514Z,16.70
2022-08-28T01:08:53.818Z,15.32
2022-08-28T01:11:22.594Z,15.85
2022-08-28T01:13:54.356Z,15.60
2022-08-28T01:16:23.365Z,15.55
2022-08-28T01:19:03.253Z,15.98
2022-08-28T01:21:37.721Z,16.13
2022-08-28T01:24:10.245Z,15.05
2022-08-28T01:26:39.413Z,15.13
2022-08-28T01:29:08.439Z,15.35
2022-08-28T01:31:37.770Z,15.10
2022-08-28T01:34:08.085Z,15.57
2022-08-28T01:36:36.580Z,14.95
2022-08-28T01:39:08.662Z,15.10
2022-08-28T01:41:40.055Z,15.02
2022-08-28T01:44:08.631Z,15.20
2022-08-28T01:46:37.083Z,15.55
2022-08-28T01:49:07.355Z,16.35
2022-08-28T01:51:38.182Z,16.05
2022-08-28T01:54:08.713Z,15.80
2022-08-28T01:56:39.037Z,16.15
2022-08-28T01:59:09.920Z,15.25
2022-08-28T02:01:38.704Z,15.88
2022-08-28T02:04:07.642Z,16.73
2022-08-28T02:06:36.490Z,15.70
2022-08-28T02:09:06.690Z,16.67
2022-08-28T02:11:46.342Z,16.48
2022-08-28T02:14:15.473Z,16.20
2022-08-28T02:16:43.705Z,15.38
2022-08-28T02:19:13.101Z,15.55
2022-08-28T02:21:41.947Z,15.82
2022-08-28T02:24:10.315Z,15.98
2022-08-28T02:26:38.664Z,14.80
2022-08-28T02:29:08.296Z,15.18
2022-08-28T02:31:36.510Z,15.57
2022-08-28T02:34:05.858Z,14.85
2022-08-28T02:36:34.544Z,15.70
2022-08-28T02:39:02.736Z,16.20
2022-08-28T02:41:31.327Z,14.93
2022-08-28T02:43:59.496Z,15.52
2022-08-28T02:46:29.515Z,14.73
2022-08-28T02:48:57.797Z,15.40
2022-08-28T02:51:26.388Z,14.77
2022-08-28T02:53:54.535Z,14.88
2022-08-28T02:56:22.936Z,15.85
2022-08-28T02:58:51.365Z,15.52
2022-08-28T03:01:22.445Z,15.55
2022-08-28T03:03:52.101Z,15.93
2022-08-28T03:06:20.382Z,15.95
2022-08-28T03:08:49.053Z,15.10
2022-08-28T03:11:17.504Z,16.90
2022-08-28T03:13:45.716Z,15.65
2022-08-28T03:16:13.994Z,15.30
2022-08-28T03:18:42.266Z,14.90
2022-08-28T03:21:12.785Z,15.77
2022-08-28T03:23:41.133Z,14.93
2022-08-28T03:26:12.497Z,15.48
2022-08-28T03:28:43.917Z,15.43
2022-08-28T03:31:15.430Z,16.05
2022-08-28T03:33:43.994Z,14.73
2022-08-28T03:36:18.811Z,14.52
2022-08-28T03:38:47.109Z,15.43
2022-08-28T03:41:17.508Z,15.20
2022-08-28T03:43:46.249Z,15.30
2022-08-28T03:46:17.533Z,15.63
2022-08-28T03:48:46.654Z,15.00
2022-08-28T03:51:18.578Z,14.93
2022-08-28T03:53:47.363Z,14.85
2022-08-28T03:56:21.945Z,14.82
2022-08-28T03:58:51.204Z,14.90
2022-08-28T04:01:19.627Z,15.15
2022-08-28T04:03:48.377Z,14.48
2022-08-28T04:06:18.329Z,15.07
2022-08-28T04:08:46.771Z,15.38
2022-08-28T04:11:14.981Z,14.75
2022-08-28T04:13:43.190Z,15.63
2022-08-28T04:16:19.028Z,14.93
2022-08-28T04:18:49.172Z,14.80
2022-08-28T04:21:20.974Z,14.80
2022-08-28T04:23:49.544Z,15.48
2022-08-28T04:26:20.770Z,15.13
2022-08-28T04:28:49.727Z,15.27
2022-08-28T04:31:31.805Z,14.90
2022-08-28T04:34:01.286Z,14.68
2022-08-28T04:36:31.070Z,14.98
2022-08-28T04:38:59.622Z,14.35
2022-08-28T04:41:28.597Z,14.43
2022-08-28T04:43:57.901Z,14.70
2022-08-28T04:46:26.462Z,14.93
2022-08-28T04:49:00.557Z,14.65
2022-08-28T04:51:31.409Z,14.45
2022-08-28T04:54:00.459Z,15.05
2022-08-28T04:56:28.865Z,14.60
2022-08-28T04:58:57.137Z,14.77
2022-08-28T05:01:26.197Z,15.00
2022-08-28T05:03:57.696Z,14.48
2022-08-28T05:06:28.106Z,14.95
2022-08-28T05:08:59.587Z,14.20
2022-08-28T05:11:34.174Z,13.90
2022-08-28T05:14:05.486Z,13.05
2022-08-28T05:16:34.466Z,13.45
2022-08-28T05:19:03.994Z,12.98
2022-08-28T05:21:32.195Z,13.35
2022-08-28T05:24:01.912Z,13.60
2022-08-28T05:26:30.290Z,13.13
2022-08-28T05:29:00.320Z,13.02
2022-08-28T05:31:30.399Z,13.18
2022-08-28T05:34:00.139Z,13.02
2022-08-28T05:36:32.474Z,13.45
2022-08-28T05:39:05.714Z,12.52
2022-08-28T05:41:34.925Z,12.27
2022-08-28T05:44:04.889Z,12.30
2022-08-28T05:46:33.494Z,11.90
2022-08-28T05:49:03.945Z,12.50
2022-08-28T05:51:35.271Z,11.95
2022-08-28T05:54:05.676Z,12.00
2022-08-28T05:56:37.044Z,11.63
2022-08-28T05:59:06.960Z,11.55
2022-08-28T06:01:37.983Z,11.30
2022-08-28T06:04:08.598Z,11.40
2022-08-28T06:06:39.248Z,11.43
2022-08-28T06:09:12.083Z,11.93
2022-08-28T06:11:42.836Z,11.30
2022-08-28T06:14:14.116Z,10.68
2022-08-28T06:16:46.051Z,10.40
2022-08-28T06:19:15.228Z,11.02
2022-08-28T06:21:43.864Z,10.65
2022-08-28T06:24:13.637Z,10.98
2022-08-28T06:26:42.084Z,10.35
2022-08-28T06:29:11.758Z,9.75
2022-08-28T06:31:40.719Z,10.55
2022-08-28T06:34:09.630Z,9.80
2022-08-28T06:36:40.247Z,9.70
2022-08-28T06:39:10.162Z,8.80
2022-08-28T06:41:42.947Z,9.20
2022-08-28T06:44:12.471Z,8.88
2022-08-28T06:46:41.056Z,8.85
2022-08-28T06:49:09.821Z,9.05
2022-08-28T06:51:38.388Z,8.98
2022-08-28T06:54:07.200Z,9.32
2022-08-28T06:56:35.986Z,9.18
2022-08-28T06:59:05.926Z,8.98
2022-08-28T07:01:36.522Z,8.93
2022-08-28T07:04:07.279Z,8.35
2022-08-28T07:06:43.189Z,8.80
2022-08-28T07:09:12.318Z,8.73
2022-08-28T07:11:41.826Z,8.60
2022-08-28T07:14:11.526Z,8.48
2022-08-28T07:16:40.543Z,8.05
2022-08-28T07:19:12.798Z,8.40
2022-08-28T07:21:43.131Z,7.97
2022-08-28T07:24:13.354Z,8.18
2022-08-28T07:26:43.453Z,8.27
2022-08-28T07:29:14.386Z,7.97
2022-08-28T07:31:44.912Z,7.60
2022-08-28T07:34:15.348Z,7.72
2022-08-28T07:36:44.669Z,7.38
2022-08-28T07:39:14.933Z,8.43
2022-08-28T07:41:43.914Z,8.00
2022-08-28T07:44:33.376Z,8.00
2022-08-28T07:47:04.518Z,8.80
2022-08-28T07:49:33.691Z,8.35
2022-08-28T07:52:02.014Z,8.02
2022-08-28T07:54:30.330Z,7.93
2022-08-28T07:56:58.502Z,8.10
2022-08-28T07:59:34.161Z,8.05
2022-08-28T08:02:06.407Z,8.02
2022-08-28T08:04:35.127Z,7.97
2022-08-28T08:07:05.063Z,7.82
2022-08-28T08:09:37.323Z,8.18
2022-08-28T08:12:06.484Z,7.50
2022-08-28T08:14:36.843Z,7.70
2022-08-28T08:17:07.545Z,6.90
2022-08-28T08:19:36.327Z,6.88
2022-08-28T08:22:04.722Z,6.90
2022-08-28T08:24:32.969Z,7.10
2022-08-28T08:27:02.633Z,5.88
2022-08-28T08:29:33.422Z,5.90
2022-08-28T08:32:07.072Z,5.85
2022-08-28T08:34:38.509Z,5.65
2022-08-28T08:37:08.044Z,6.13
2022-08-28T08:39:37.397Z,6.20
2022-08-28T08:42:08.803Z,5.85
2022-08-28T08:44:41.429Z,6.15
2022-08-28T08:47:16.562Z,5.75
2022-08-28T08:49:51.068Z,5.57
2022-08-28T08:52:41.560Z,5.90
2022-08-28T08:55:19.282Z,5.68
2022-08-28T08:57:52.569Z,5.65
2022-08-28T09:00:20.973Z,5.05
2022-08-28T09:02:57.452Z,5.78
2022-08-28T09:05:40.722Z,5.80
2022-08-28T09:08:13.643Z,5.40
2022-08-28T09:10:50.357Z,5.40
2022-08-28T09:13:27.502Z,5.60
2022-08-28T09:15:55.919Z,5.53
2022-08-28T09:18:28.131Z,5.78
2022-08-28T09:20:59.172Z,5.70
2022-08-28T09:23:30.142Z,5.20
2022-08-28T09:26:01.697Z,4.97
2022-08-28T09:28:34.234Z,4.57
2022-08-28T09:31:06.164Z,4.57
2022-08-28T09:33:41.780Z,4.90
2022-08-28T09:36:32.887Z,4.97
2022-08-28T09:39:14.125Z,4.85
2022-08-28T09:42:19.687Z,4.90
2022-08-28T09:44:51.311Z,5.13
2022-08-28T09:47:51.672Z,5.05
2022-08-28T09:50:25.124Z,5.15
2022-08-28T09:52:58.780Z,4.75
2022-08-28T09:55:34.830Z,4.80
2022-08-28T09:58:03.793Z,4.88
2022-08-28T10:00:36.255Z,5.00
2022-08-28T10:03:14.472Z,5.05
2022-08-28T10:05:54.860Z,5.40
2022-08-28T10:08:41.884Z,4.88
2022-08-28T10:11:20.619Z,4.90
2022-08-28T10:13:58.909Z,4.93
2022-08-28T10:16:37.617Z,5.07
2022-08-28T10:19:15.558Z,5.00
2022-08-28T10:21:49.697Z,4.80
2022-08-28T10:24:32.424Z,5.25
2022-08-28T10:27:13.042Z,4.70
2022-08-28T10:29:52.130Z,4.60
2022-08-28T10:32:43.605Z,4.97
2022-08-28T10:35:17.016Z,4.97
2022-08-28T10:38:00.374Z,5.50
2022-08-28T10:40:34.663Z,5.07
2022-08-28T10:43:06.221Z,5.47
2022-08-28T10:45:35.955Z,5.47
2022-08-28T10:48:11.122Z,4.95
2022-08-28T10:50:44.738Z,5.57
2022-08-28T10:53:19.565Z,5.38
2022-08-28T10:55:56.237Z,5.28
2022-08-28T10:58:27.459Z,5.55
2022-08-28T11:01:01.059Z,5.32
2022-08-28T11:03:35.259Z,5.15
2022-08-28T11:06:11.529Z,4.85
2022-08-28T11:08:41.625Z,4.90
2022-08-28T11:11:14.917Z,5.50
2022-08-28T11:13:48.072Z,5.05
2022-08-28T11:16:22.553Z,5.07
2022-08-28T11:19:08.251Z,5.30
2022-08-28T11:21:42.175Z,4.78
2022-08-28T11:24:32.324Z,4.80
2022-08-28T11:27:08.424Z,5.32
2022-08-28T11:30:03.477Z,4.90
2022-08-28T11:32:56.012Z,5.13
2022-08-28T11:35:48.357Z,4.63
2022-08-28T11:38:49.766Z,4.90
2022-08-28T11:41:22.499Z,5.10
2022-08-28T11:43:52.405Z,5.20
2022-08-28T11:46:31.387Z,5.07
2022-08-28T11:49:01.095Z,4.97
2022-08-28T11:51:58.684Z,5.18
2022-08-28T11:54:40.623Z,5.47
2022-08-28T11:57:19.030Z,5.40
2022-08-28T12:00:03.824Z,4.93
2022-08-28T12:02:51.018Z,5.03
2022-08-28T12:05:45.403Z,4.90
2022-08-28T12:08:34.894Z,4.85
2022-08-28T12:11:04.872Z,4.57
2022-08-28T12:13:48.981Z,4.60
2022-08-28T12:16:17.528Z,4.65
2022-08-28T12:19:02.758Z,4.72
2022-08-28T12:21:36.949Z,4.50
2022-08-28T12:24:14.627Z,4.63
2022-08-28T12:26:48.797Z,4.85
2022-08-28T12:29:29.905Z,4.97
2022-08-28T12:32:12.282Z,4.90
2022-08-28T12:35:04.421Z,4.65
2022-08-28T12:37:51.572Z,4.80
2022-08-28T12:40:24.717Z,4.75
2022-08-28T12:42:57.199Z,4.88
2022-08-28T12:45:30.277Z,4.60
2022-08-28T12:48:03.035Z,4.90
2022-08-28T12:50:36.521Z,4.88
2022-08-28T12:53:07.132Z,4.70
2022-08-28T12:55:35.638Z,4.63
2022-08-28T12:58:05.791Z,4.53
2022-08-28T13:00:54.030Z,4.45
2022-08-28T13:03:22.737Z,4.22
2022-08-28T13:05:58.957Z,4.50
2022-08-28T13:08:28.117Z,4.20
2022-08-28T13:10:57.090Z,4.15
2022-08-28T13:13:35.280Z,4.35
2022-08-28T13:16:05.360Z,4.38
2022-08-28T13:18:46.683Z,4.10
2022-08-28T13:21:33.950Z,4.50
2022-08-28T13:24:28.600Z,3.95
2022-08-28T13:27:04.717Z,4.40
2022-08-28T13:29:35.358Z,4.50
2022-08-28T13:32:05.632Z,4.30
2022-08-28T13:34:35.326Z,4.30
2022-08-28T13:37:07.420Z,4.82
2022-08-28T13:39:48.146Z,4.40
2022-08-28T13:42:18.307Z,4.40
2022-08-28T13:44:50.675Z,4.00
2022-08-28T13:47:19.045Z,4.65
2022-08-28T13:49:47.385Z,4.00
2022-08-28T13:52:15.945Z,4.30
2022-08-28T13:54:45.518Z,4.35
2022-08-28T13:57:14.543Z,4.25
2022-08-28T13:59:42.834Z,4.28
2022-08-28T14:02:33.027Z,4.50
2022-08-28T14:05:01.625Z,4.25
2022-08-28T14:07:30.140Z,4.55
2022-08-28T14:09:58.807Z,4.43
2022-08-28T14:12:32.695Z,4.30
2022-08-28T14:15:01.732Z,3.85
2022-08-28T14:17:31.336Z,4.70
2022-08-28T14:20:00.807Z,4.13
2022-08-28T14:22:29.958Z,4.45
2022-08-28T14:24:58.220Z,3.80
2022-08-28T14:27:26.390Z,4.45
2022-08-28T14:29:54.624Z,4.88
2022-08-28T14:32:22.875Z,4.50
2022-08-28T14:34:52.491Z,4.45
2022-08-28T14:37:21.585Z,4.57
2022-08-28T14:39:50.510Z,4.53
2022-08-28T14:42:19.324Z,4.32
2022-08-28T14:44:47.745Z,4.45
2022-08-28T14:47:16.049Z,4.50
2022-08-28T14:49:44.281Z,4.80
2022-08-28T14:52:13.837Z,4.60
2022-08-28T14:54:42.051Z,4.55
2022-08-28T14:57:11.833Z,5.07
2022-08-28T14:59:39.994Z,4.22
2022-08-28T15:02:08.759Z,4.30
2022-08-28T15:04:38.017Z,4.65
2022-08-28T15:07:10.549Z,4.60
2022-08-28T15:09:42.532Z,4.45
2022-08-28T15:12:11.788Z,4.00
2022-08-28T15:14:39.942Z,4.10
2022-08-28T15:17:10.713Z,5.00
2022-08-28T15:19:38.910Z,4.10
2022-08-28T15:22:07.140Z,4.10
2022-08-28T15:24:36.250Z,3.90
2022-08-28T15:27:07.000Z,4.40
2022-08-28T15:29:35.250Z,4.53
2022-08-28T15:32:03.805Z,4.30
2022-08-28T15:34:32.328Z,4.53
2022-08-28T15:37:00.694Z,4.03
2022-08-28T15:39:47.582Z,4.10
2022-08-28T15:42:17.426Z,4.55
2022-08-28T15:44:45.660Z,4.38
2022-08-28T15:47:14.851Z,4.22
2022-08-28T15:49:49.922Z,4.63
2022-08-28T15:52:19.270Z,4.40
2022-08-28T15:54:47.580Z,4.28
2022-08-28T15:57:17.430Z,4.43
2022-08-28T15:59:50.465Z,4.03
2022-08-28T16:02:20.634Z,3.90
2022-08-28T16:04:49.288Z,4.00
2022-08-28T16:07:18.224Z,4.35
2022-08-28T16:09:46.477Z,4.30
2022-08-28T16:12:16.600Z,4.90
2022-08-28T16:14:45.234Z,4.50
2022-08-28T16:17:13.566Z,4.30
2022-08-28T16:19:42.794Z,4.53
2022-08-28T16:22:12.177Z,4.43
2022-08-28T16:24:40.520Z,4.70
2022-08-28T16:27:13.239Z,4.80
2022-08-28T16:29:45.885Z,4.80
2022-08-28T16:32:14.228Z,5.28
2022-08-28T16:34:44.613Z,4.88
2022-08-28T16:37:13.500Z,4.80
2022-08-28T16:39:47.851Z,4.70
2022-08-28T16:42:17.306Z,4.70
2022-08-28T16:44:46.979Z,4.80
2022-08-28T16:47:15.716Z,4.90
2022-08-28T16:49:43.908Z,4.90
2022-08-28T16:52:12.274Z,4.97
2022-08-28T16:54:48.647Z,4.88
2022-08-28T16:57:17.366Z,4.43
2022-08-28T16:59:46.991Z,4.57
2022-08-28T17:02:26.315Z,4.95
2022-08-28T17:04:55.077Z,5.00
2022-08-28T17:07:23.464Z,5.20
2022-08-28T17:09:52.146Z,5.35
2022-08-28T17:12:20.819Z,4.82
2022-08-28T17:14:50.508Z,5.30
2022-08-28T17:17:18.842Z,5.43
2022-08-28T17:19:47.198Z,4.90
2022-08-28T17:22:32.439Z,5.30
2022-08-28T17:25:03.005Z,4.90
2022-08-28T17:27:32.190Z,4.93
2022-08-28T17:30:04.825Z,5.20
2022-08-28T17:32:33.109Z,4.88
2022-08-28T17:35:01.702Z,5.35
2022-08-28T17:37:29.922Z,5.22
2022-08-28T17:39:58.143Z,5.53
2022-08-28T17:42:26.361Z,5.93
2022-08-28T17:44:54.563Z,5.07
2022-08-28T17:47:27.408Z,5.50
2022-08-28T17:49:59.650Z,5.22
2022-08-28T17:52:28.207Z,5.18
2022-08-28T17:54:56.899Z,5.30
2022-08-28T17:57:25.408Z,5.18
2022-08-28T17:59:54.418Z,5.45
2022-08-28T18:02:24.154Z,5.32
2022-08-28T18:04:52.439Z,5.20
2022-08-28T18:07:20.689Z,5.55
2022-08-28T18:09:51.874Z,5.43
2022-08-28T18:12:20.407Z,5.28
2022-08-28T18:14:48.540Z,5.60
2022-08-28T18:17:17.085Z,5.75
2022-08-28T18:19:46.822Z,5.38
2022-08-28T18:22:15.256Z,6.55
2022-08-28T18:24:44.196Z,6.80
2022-08-28T18:27:12.808Z,6.45
2022-08-28T18:29:41.015Z,7.93
2022-08-28T18:32:09.424Z,8.20
2022-08-28T18:34:37.585Z,11.10
2022-08-28T18:37:07.570Z,8.07
2022-08-28T18:39:35.920Z,8.38
2022-08-28T18:42:04.710Z,7.47
2022-08-28T18:44:33.078Z,7.65
2022-08-28T18:47:01.331Z,7.60
2022-08-28T18:49:29.689Z,7.30
2022-08-28T18:51:57.884Z,7.53
2022-08-28T18:54:28.410Z,7.38
2022-08-28T18:57:01.015Z,6.85
2022-08-28T18:59:33.358Z,6.40
2022-08-28T19:02:03.544Z,7.30
2022-08-28T19:04:32.569Z,7.45
2022-08-28T19:07:00.732Z,7.32
2022-08-28T19:09:32.581Z,7.55
2022-08-28T19:12:02.662Z,7.13
2022-08-28T19:14:31.021Z,7.93
2022-08-28T19:16:59.333Z,8.13
2022-08-28T19:19:28.580Z,8.80
2022-08-28T19:21:57.346Z,8.27
2022-08-28T19:24:26.535Z,7.35
2022-08-28T19:26:56.106Z,7.88
2022-08-28T19:29:24.277Z,7.40
2022-08-28T19:31:52.978Z,7.80
2022-08-28T19:34:21.210Z,7.80
2022-08-28T19:36:49.425Z,7.80
2022-08-28T19:39:17.681Z,7.60
2022-08-28T19:41:45.892Z,8.23
2022-08-28T19:44:15.514Z,8.50
2022-08-28T19:46:43.857Z,8.60
2022-08-28T19:49:12.220Z,8.10
2022-08-28T19:51:41.166Z,7.95
2022-08-28T19:54:11.119Z,8.52
2022-08-28T19:56:39.953Z,8.40
2022-08-28T19:59:09.034Z,8.50
2022-08-28T20:01:40.458Z,8.57
2022-08-28T20:04:13.311Z,8.15
2022-08-28T20:06:41.485Z,9.00
2022-08-28T20:09:12.876Z,9.43
2022-08-28T20:11:44.900Z,8.68
2022-08-28T20:14:13.598Z,8.80
2022-08-28T20:16:44.985Z,9.43
2022-08-28T20:19:13.708Z,9.45
2022-08-28T20:21:45.123Z,8.80
2022-08-28T20:24:17.518Z,9.00
2022-08-28T20:26:45.937Z,9.23
2022-08-28T20:29:15.083Z,9.68
2022-08-28T20:31:47.259Z,9.82
2022-08-28T20:34:17.729Z,9.70
2022-08-28T20:36:46.355Z,9.85
2022-08-28T20:39:15.489Z,9.77
2022-08-28T20:41:44.502Z,9.30
2022-08-28T20:44:14.108Z,10.18
2022-08-28T20:46:44.082Z,9.77
2022-08-28T20:49:21.855Z,9.88
2022-08-28T20:52:01.035Z,9.68
2022-08-28T20:54:32.483Z,9.35
2022-08-28T20:57:03.472Z,9.07
2022-08-28T20:59:37.205Z,8.73
2022-08-28T21:02:12.320Z,8.73
2022-08-28T21:04:42.067Z,8.70
2022-08-28T21:07:10.869Z,8.50
2022-08-28T21:10:04.441Z,8.27
2022-08-28T21:12:27.989Z,8.10
2022-08-28T21:14:56.230Z,8.38
2022-08-28T21:17:30.338Z,8.63
2022-08-28T21:20:01.396Z,8.88
2022-08-28T21:22:31.911Z,8.57
2022-08-28T21:25:01.834Z,8.80
2022-08-28T21:27:31.053Z,8.85
2022-08-28T21:30:00.718Z,8.90
2022-08-28T21:32:32.647Z,9.20
2022-08-28T21:35:02.233Z,9.07
2022-08-28T21:37:31.150Z,8.85
2022-08-28T21:39:59.706Z,8.82
2022-08-28T21:42:28.041Z,8.95
2022-08-28T21:44:56.300Z,9.07
2022-08-28T21:47:25.688Z,8.65
2022-08-28T21:49:57.412Z,8.73
2022-08-28T21:52:28.154Z,8.93
2022-08-28T21:54:58.630Z,9.00
2022-08-28T21:57:27.574Z,9.48
2022-08-28T21:59:56.137Z,9.05
2022-08-28T22:02:24.643Z,8.98
2022-08-28T22:04:53.694Z,10.27
2022-08-28T22:07:23.389Z,10.05
2022-08-28T22:09:51.920Z,9.85
2022-08-28T22:12:20.279Z,9.80
2022-08-28T22:14:48.542Z,10.07
2022-08-28T22:17:16.752Z,10.57
2022-08-28T22:19:45.384Z,10.15
2022-08-28T22:22:33.340Z,10.68
2022-08-28T22:25:02.976Z,11.00
2022-08-28T22:27:33.018Z,10.93
2022-08-28T22:30:01.328Z,11.27
2022-08-28T22:32:29.539Z,10.52
2022-08-28T22:34:57.921Z,11.25
2022-08-28T22:37:26.526Z,11.30
2022-08-28T22:39:55.005Z,11.00
2022-08-28T22:42:24.588Z,11.13
2022-08-28T22:44:52.835Z,10.68
2022-08-28T22:47:21.016Z,11.10
2022-08-28T22:49:49.820Z,10.80
2022-08-28T22:52:18.349Z,11.13
2022-08-28T22:54:47.085Z,10.02
2022-08-28T22:57:20.922Z,10.43
2022-08-28T22:59:50.718Z,10.30
2022-08-28T23:02:19.859Z,10.70
2022-08-28T23:04:51.962Z,10.85
2022-08-28T23:07:20.617Z,10.10
2022-08-28T23:09:49.460Z,10.65
2022-08-28T23:12:18.077Z,10.40
2022-08-28T23:14:48.553Z,10.80
2022-08-28T23:17:18.820Z,10.73
2022-08-28T23:19:47.718Z,11.25
2022-08-28T23:22:16.450Z,11.38
2022-08-28T23:24:46.248Z,10.63
2022-08-28T23:27:35.221Z,11.50
2022-08-28T23:30:03.012Z,10.70
2022-08-28T23:32:34.157Z,11.32
2022-08-28T23:35:02.574Z,12.00
2022-08-28T23:37:36.885Z,11.73
2022-08-28T23:40:08.423Z,11.37
2022-08-28T23:42:36.934Z,11.30
2022-08-28T23:45:07.768Z,11.50
2022-08-28T23:47:40.731Z,12.00
2022-08-28T23:50:14.559Z,11.30
2022-08-28T23:52:44.498Z,11.30
2022-08-28T23:55:14.534Z,11.45
2022-08-28T23:57:43.048Z,11.63
